Terminal Aerodrome Forecast
Issued by NWS Wichita, KS

Home | Current Version | Previous Version | Graphics & Text | Print | Product List | Glossary On
Versions: 1 2 3 4 5 6 7 8 9 10 11 12 13 14 15 16 17 18 19 20
630
FTUS43 KICT 171528 AAC
TAFICT
TAF AMD
KICT 171528Z 1715/1812 19017G25KT 3SM BR OVC013
     FM171600 19017KT 5SM BR OVC015
     FM171800 20017KT P6SM SCT015
     FM172000 21017KT P6SM BKN250
     FM172300 19009KT P6SM BKN250=

USA.gov is the U.S. government's official web portal to all federal, state and local government web resources and services.